createdAt,value
2023-08-03T00:00:14.720Z,162.14
2023-08-03T00:01:14.799Z,157.48
2023-08-03T00:02:14.841Z,153.43
2023-08-03T00:03:15.032Z,150.80
2023-08-03T00:04:15.002Z,148.40
2023-08-03T00:05:14.975Z,142.00
2023-08-03T00:06:15.046Z,140.85
2023-08-03T00:07:15.099Z,145.53
2023-08-03T00:08:15.125Z,150.28
2023-08-03T00:09:15.174Z,158.84
2023-08-03T00:10:15.245Z,164.90
2023-08-03T00:11:15.329Z,166.22
2023-08-03T00:12:15.355Z,170.28
2023-08-03T00:13:15.429Z,171.34
2023-08-03T00:14:15.497Z,173.62
2023-08-03T00:15:15.549Z,173.56
2023-08-03T00:16:15.630Z,174.13
2023-08-03T00:17:15.646Z,173.60
2023-08-03T00:18:15.737Z,175.54
2023-08-03T00:19:15.769Z,175.90
2023-08-03T00:20:15.821Z,177.04
2023-08-03T00:21:15.911Z,174.92
2023-08-03T00:22:15.949Z,173.21
2023-08-03T00:23:16.028Z,172.75
2023-08-03T00:24:16.083Z,169.45
2023-08-03T00:25:16.128Z,170.15
2023-08-03T00:26:16.224Z,169.33
2023-08-03T00:27:16.284Z,171.30
2023-08-03T00:28:16.325Z,163.86
2023-08-03T00:29:16.407Z,155.26
2023-08-03T00:30:16.438Z,149.20
2023-08-03T00:31:16.553Z,143.77
2023-08-03T00:32:16.595Z,140.78
2023-08-03T00:33:16.631Z,140.39
2023-08-03T00:34:16.688Z,142.20
2023-08-03T00:35:16.753Z,141.16
2023-08-03T00:36:16.832Z,138.76
2023-08-03T00:37:16.941Z,143.59
2023-08-03T00:38:16.933Z,153.02
2023-08-03T00:39:17.011Z,159.89
2023-08-03T00:40:17.061Z,170.35
2023-08-03T00:41:17.138Z,173.93
2023-08-03T00:42:17.179Z,181.26
2023-08-03T00:43:17.248Z,190.89
2023-08-03T00:44:17.341Z,195.27
2023-08-03T00:45:17.372Z,198.91
2023-08-03T00:46:17.464Z,204.89
2023-08-03T00:47:17.501Z,209.42
2023-08-03T00:48:17.577Z,215.36
2023-08-03T00:49:17.609Z,218.63
2023-08-03T00:50:17.674Z,221.12
2023-08-03T00:51:17.742Z,220.33
2023-08-03T00:52:17.808Z,208.09
2023-08-03T00:53:17.876Z,198.67
2023-08-03T00:54:17.969Z,191.68
2023-08-03T00:55:17.963Z,193.23
2023-08-03T00:56:18.046Z,190.95
2023-08-03T00:57:18.091Z,187.82
2023-08-03T00:58:18.157Z,191.00
2023-08-03T00:59:18.235Z,192.80
2023-08-03T01:00:18.315Z,192.61
2023-08-03T01:01:18.376Z,193.91
2023-08-03T01:02:18.481Z,197.87
2023-08-03T01:03:18.582Z,201.35
2023-08-03T01:04:18.564Z,205.25
2023-08-03T01:05:18.565Z,206.10
2023-08-03T01:06:18.721Z,203.68
2023-08-03T01:07:18.707Z,207.21
2023-08-03T01:08:18.778Z,214.79
2023-08-03T01:09:18.848Z,216.90
2023-08-03T01:10:18.952Z,222.81
2023-08-03T01:11:19.016Z,227.14
2023-08-03T01:12:19.036Z,230.43
2023-08-03T01:13:19.063Z,233.51
2023-08-03T01:14:19.125Z,235.86
2023-08-03T01:15:19.164Z,238.81
2023-08-03T01:16:19.258Z,239.94
2023-08-03T01:17:19.257Z,240.04
2023-08-03T01:18:19.321Z,241.71
2023-08-03T01:19:19.393Z,241.56
2023-08-03T01:20:19.431Z,240.19
2023-08-03T01:21:19.527Z,239.96
2023-08-03T01:22:19.569Z,244.12
2023-08-03T01:23:19.608Z,241.54
2023-08-03T01:24:19.676Z,244.86
2023-08-03T01:25:19.732Z,245.76
2023-08-03T01:26:19.844Z,244.57
2023-08-03T01:27:19.878Z,246.47
2023-08-03T01:28:19.906Z,245.25
2023-08-03T01:29:20.016Z,247.33
2023-08-03T01:30:20.048Z,248.55
2023-08-03T01:31:20.252Z,248.32
2023-08-03T01:32:20.186Z,249.37
2023-08-03T01:33:20.288Z,247.60
2023-08-03T01:34:20.272Z,247.77
2023-08-03T01:35:20.321Z,247.08
2023-08-03T01:36:20.419Z,246.53
2023-08-03T01:37:20.447Z,242.41
2023-08-03T01:38:20.512Z,242.55
2023-08-03T01:39:20.575Z,242.76
2023-08-03T01:40:20.640Z,241.14
2023-08-03T01:41:20.714Z,239.82
2023-08-03T01:42:20.783Z,239.67
2023-08-03T01:43:20.814Z,237.97
2023-08-03T01:44:20.875Z,241.87
2023-08-03T01:45:20.923Z,243.90
2023-08-03T01:46:21.019Z,242.74
2023-08-03T01:47:21.080Z,243.75
2023-08-03T01:48:21.118Z,243.10
2023-08-03T01:49:21.178Z,243.44
2023-08-03T01:50:21.244Z,244.70
2023-08-03T01:51:21.314Z,245.31
2023-08-03T01:52:21.388Z,249.58
2023-08-03T01:53:21.449Z,250.00
2023-08-03T01:54:21.475Z,249.33
2023-08-03T01:55:21.550Z,250.00
2023-08-03T01:56:21.570Z,248.61
2023-08-03T01:57:21.634Z,248.41
2023-08-03T01:58:21.595Z,250.00
2023-08-03T01:59:21.636Z,248.87
2023-08-03T02:00:21.675Z,247.44
2023-08-03T02:01:21.758Z,247.57
2023-08-03T02:02:21.728Z,247.90
2023-08-03T02:03:21.725Z,248.35
2023-08-03T02:04:21.774Z,249.05
2023-08-03T02:05:21.778Z,249.14
2023-08-03T02:06:21.815Z,249.25
2023-08-03T02:07:21.818Z,250.00
2023-08-03T02:08:21.842Z,247.35
2023-08-03T02:09:21.864Z,247.24
2023-08-03T02:10:21.910Z,247.79
2023-08-03T02:11:21.957Z,248.57
2023-08-03T02:12:22.175Z,248.57
2023-08-03T02:13:22.085Z,249.08
2023-08-03T02:14:22.149Z,247.64
2023-08-03T02:15:22.223Z,248.45
2023-08-03T02:16:25.259Z,248.20
2023-08-03T02:17:22.304Z,248.50
2023-08-03T02:18:22.262Z,246.80
2023-08-03T02:19:22.251Z,248.89
2023-08-03T02:20:22.265Z,249.80
2023-08-03T02:21:22.257Z,248.18
2023-08-03T02:22:22.256Z,249.15
2023-08-03T02:23:22.226Z,248.70
2023-08-03T02:24:22.231Z,249.93
2023-08-03T02:25:22.209Z,248.56
2023-08-03T02:26:22.230Z,249.57
2023-08-03T02:27:22.250Z,249.59
2023-08-03T02:28:22.210Z,249.10
2023-08-03T02:29:22.234Z,247.79
2023-08-03T02:30:22.212Z,248.94
2023-08-03T02:31:22.208Z,250.00
2023-08-03T02:32:22.206Z,248.13
2023-08-03T02:33:22.235Z,248.28
2023-08-03T02:34:22.169Z,249.10
2023-08-03T02:35:22.182Z,249.94
2023-08-03T02:36:22.155Z,249.10
2023-08-03T02:37:22.167Z,246.55
2023-08-03T02:38:22.135Z,246.84
2023-08-03T02:39:22.126Z,247.24
2023-08-03T02:40:22.133Z,246.27
2023-08-03T02:41:22.117Z,248.32
2023-08-03T02:42:22.142Z,247.37
2023-08-03T02:43:22.126Z,248.63
2023-08-03T02:44:22.107Z,247.06
2023-08-03T02:45:22.087Z,248.84
2023-08-03T02:46:22.149Z,248.80
2023-08-03T02:47:22.193Z,249.63
2023-08-03T02:48:22.276Z,248.92
2023-08-03T02:49:22.333Z,247.53
2023-08-03T02:50:22.400Z,248.20
2023-08-03T02:51:22.431Z,248.32
2023-08-03T02:52:22.515Z,249.08
2023-08-03T02:53:22.582Z,248.13
2023-08-03T02:54:22.643Z,249.03
2023-08-03T02:55:22.693Z,247.95
2023-08-03T02:56:22.745Z,247.96
2023-08-03T02:57:22.814Z,248.39
2023-08-03T02:58:22.895Z,247.55
2023-08-03T02:59:22.952Z,246.36
2023-08-03T03:00:22.994Z,246.86
2023-08-03T03:01:23.095Z,245.09
2023-08-03T03:02:23.243Z,247.35
2023-08-03T03:03:23.283Z,248.64
2023-08-03T03:04:23.283Z,248.89
2023-08-03T03:05:23.320Z,249.12
2023-08-03T03:06:23.412Z,249.00
2023-08-03T03:07:23.434Z,248.87
2023-08-03T03:08:23.487Z,248.37
2023-08-03T03:09:23.496Z,247.90
2023-08-03T03:10:23.520Z,248.84
2023-08-03T03:11:23.561Z,248.64
2023-08-03T03:12:23.559Z,249.44
2023-08-03T03:13:23.615Z,248.38
2023-08-03T03:14:23.657Z,249.12
2023-08-03T03:15:23.708Z,248.15
2023-08-03T03:16:23.833Z,246.61
2023-08-03T03:17:23.906Z,246.45
2023-08-03T03:18:23.925Z,248.94
2023-08-03T03:19:23.956Z,249.69
2023-08-03T03:20:24.043Z,250.00
2023-08-03T03:21:24.079Z,249.57
2023-08-03T03:22:24.247Z,249.19
2023-08-03T03:23:24.178Z,248.82
2023-08-03T03:24:24.265Z,250.00
2023-08-03T03:25:24.274Z,248.41
2023-08-03T03:26:24.328Z,250.00
2023-08-03T03:27:24.381Z,249.11
2023-08-03T03:28:24.465Z,249.39
2023-08-03T03:29:24.492Z,248.25
2023-08-03T03:30:24.539Z,250.00
2023-08-03T03:31:24.616Z,249.48
2023-08-03T03:32:24.730Z,247.28
2023-08-03T03:33:25.187Z,247.62
2023-08-03T03:34:24.744Z,249.25
2023-08-03T03:35:24.790Z,248.88
2023-08-03T03:36:24.840Z,249.69
2023-08-03T03:37:24.880Z,248.62
2023-08-03T03:38:24.935Z,249.27
2023-08-03T03:39:24.970Z,249.12
2023-08-03T03:40:24.982Z,247.59
2023-08-03T03:41:25.003Z,247.39
2023-08-03T03:42:25.035Z,245.77
2023-08-03T03:43:25.098Z,244.80
2023-08-03T03:44:25.134Z,245.83
2023-08-03T03:45:25.193Z,246.88
2023-08-03T03:46:25.206Z,248.43
2023-08-03T03:47:25.266Z,249.14
2023-08-03T03:48:25.362Z,249.61
2023-08-03T03:49:25.331Z,248.81
2023-08-03T03:50:25.411Z,247.68
2023-08-03T03:51:25.424Z,248.92
2023-08-03T03:52:25.472Z,248.30
2023-08-03T03:53:25.537Z,248.36
2023-08-03T03:54:25.587Z,249.60
2023-08-03T03:55:26.191Z,249.29
2023-08-03T03:56:25.644Z,250.00
2023-08-03T03:57:25.672Z,250.00
2023-08-03T03:58:25.824Z,249.58
2023-08-03T03:59:25.787Z,249.79
2023-08-03T04:00:25.874Z,247.36
2023-08-03T04:01:25.981Z,248.72
2023-08-03T04:02:26.015Z,247.84
2023-08-03T04:03:26.060Z,247.88
2023-08-03T04:04:26.046Z,247.57
2023-08-03T04:05:26.107Z,247.90
2023-08-03T04:06:26.261Z,247.11
2023-08-03T04:07:26.207Z,246.42
2023-08-03T04:08:26.280Z,242.47
2023-08-03T04:09:26.370Z,238.80
2023-08-03T04:10:26.386Z,234.66
2023-08-03T04:11:26.443Z,231.53
2023-08-03T04:12:26.464Z,226.66
2023-08-03T04:13:26.534Z,226.20
2023-08-03T04:14:26.595Z,220.70
2023-08-03T04:15:26.607Z,218.22
2023-08-03T04:16:26.642Z,214.25
2023-08-03T04:17:26.659Z,208.80
2023-08-03T04:18:26.712Z,207.85
2023-08-03T04:19:26.772Z,205.67
2023-08-03T04:20:26.861Z,204.48
2023-08-03T04:21:26.947Z,201.27
2023-08-03T04:22:27.002Z,196.34
2023-08-03T04:23:27.028Z,194.99
2023-08-03T04:24:27.102Z,196.24
2023-08-03T04:25:27.101Z,196.49
2023-08-03T04:26:27.170Z,193.12
2023-08-03T04:27:27.238Z,191.32
2023-08-03T04:28:27.273Z,192.42
2023-08-03T04:29:27.349Z,194.00
2023-08-03T04:30:27.420Z,192.22
2023-08-03T04:31:27.605Z,192.71
2023-08-03T04:32:27.650Z,191.02
2023-08-03T04:33:27.612Z,189.68
2023-08-03T04:34:27.648Z,189.02
2023-08-03T04:35:27.695Z,185.02
2023-08-03T04:36:27.765Z,185.16
2023-08-03T04:37:27.847Z,187.07
2023-08-03T04:38:27.865Z,185.52
2023-08-03T04:39:27.948Z,184.06
2023-08-03T04:40:27.969Z,186.78
2023-08-03T04:41:28.046Z,190.77
2023-08-03T04:42:28.086Z,187.33
2023-08-03T04:43:28.182Z,187.82
2023-08-03T04:44:28.221Z,183.50
2023-08-03T04:45:28.314Z,180.82
2023-08-03T04:46:28.434Z,181.03
2023-08-03T04:47:28.413Z,176.59
2023-08-03T04:48:28.472Z,180.00
2023-08-03T04:49:28.530Z,177.25
2023-08-03T04:50:28.596Z,179.20
2023-08-03T04:51:28.673Z,178.16
2023-08-03T04:52:28.685Z,179.94
2023-08-03T04:53:28.731Z,176.57
2023-08-03T04:54:28.848Z,175.29
2023-08-03T04:55:28.840Z,174.46
2023-08-03T04:56:28.877Z,178.47
2023-08-03T04:57:28.953Z,176.41
2023-08-03T04:58:28.962Z,179.32
2023-08-03T04:59:29.041Z,176.69
2023-08-03T05:00:29.142Z,178.21
2023-08-03T05:01:29.187Z,178.44
2023-08-03T05:02:29.244Z,176.68
2023-08-03T05:03:29.218Z,177.72
2023-08-03T05:04:29.364Z,174.86
2023-08-03T05:05:29.332Z,171.21
2023-08-03T05:06:29.429Z,167.82
2023-08-03T05:07:29.440Z,165.95
2023-08-03T05:08:29.461Z,164.13
2023-08-03T05:09:29.535Z,166.83
2023-08-03T05:10:29.588Z,161.97
2023-08-03T05:11:29.665Z,160.06
2023-08-03T05:12:29.641Z,160.63
2023-08-03T05:13:29.670Z,160.11
2023-08-03T05:14:29.734Z,158.77
2023-08-03T05:15:29.771Z,158.10
2023-08-03T05:16:29.871Z,153.66
2023-08-03T05:17:29.929Z,151.51
2023-08-03T05:18:30.834Z,153.24
2023-08-03T05:19:29.985Z,150.18
2023-08-03T05:20:30.050Z,152.84
2023-08-03T05:21:30.080Z,152.98
2023-08-03T05:22:30.207Z,151.62
2023-08-03T05:23:30.142Z,153.21
2023-08-03T05:24:30.283Z,148.71
2023-08-03T05:25:30.231Z,152.52
2023-08-03T05:26:30.304Z,153.43
2023-08-03T05:27:30.347Z,153.09
2023-08-03T05:28:30.298Z,152.29
2023-08-03T05:29:30.351Z,151.33
2023-08-03T05:30:30.721Z,152.34
2023-08-03T05:31:30.373Z,149.95
2023-08-03T05:32:30.395Z,152.89
2023-08-03T05:33:30.401Z,152.94
2023-08-03T05:34:30.449Z,151.29
2023-08-03T05:35:30.432Z,151.21
2023-08-03T05:36:30.471Z,153.71
2023-08-03T05:37:30.471Z,149.39
2023-08-03T05:38:30.472Z,150.95
2023-08-03T05:39:30.475Z,149.46
2023-08-03T05:40:30.523Z,149.46
2023-08-03T05:41:30.545Z,149.19
2023-08-03T05:42:30.551Z,149.38
2023-08-03T05:43:30.543Z,148.85
2023-08-03T05:44:30.584Z,150.18
2023-08-03T05:45:30.666Z,149.86
2023-08-03T05:46:30.636Z,148.54
2023-08-03T05:47:30.639Z,149.42
2023-08-03T05:48:30.645Z,150.45
2023-08-03T05:49:30.687Z,153.58
2023-08-03T05:50:30.738Z,152.62
2023-08-03T05:51:30.798Z,150.96
2023-08-03T05:52:30.818Z,154.13
2023-08-03T05:53:30.872Z,158.00
2023-08-03T05:54:30.863Z,159.20
2023-08-03T05:55:30.916Z,157.22
2023-08-03T05:56:30.949Z,161.87
2023-08-03T05:57:30.981Z,161.21
2023-08-03T05:58:30.980Z,160.92
2023-08-03T05:59:31.011Z,163.13
2023-08-03T06:00:31.067Z,159.87
2023-08-03T06:01:31.099Z,158.45
2023-08-03T06:02:31.151Z,159.12
2023-08-03T06:03:31.228Z,157.96
2023-08-03T06:04:31.157Z,158.78
2023-08-03T06:05:31.183Z,161.06
2023-08-03T06:06:31.310Z,160.59
2023-08-03T06:07:31.196Z,160.05
2023-08-03T06:08:31.205Z,160.53
2023-08-03T06:09:33.065Z,161.41
2023-08-03T06:10:31.233Z,159.97
2023-08-03T06:11:31.247Z,157.04
2023-08-03T06:12:31.267Z,158.17
2023-08-03T06:13:31.268Z,159.81
2023-08-03T06:14:31.276Z,160.95
2023-08-03T06:15:31.311Z,161.40
2023-08-03T06:16:31.319Z,158.56
2023-08-03T06:17:31.377Z,158.33
2023-08-03T06:18:31.375Z,155.01
2023-08-03T06:19:31.349Z,154.31
2023-08-03T06:20:31.400Z,154.75
2023-08-03T06:21:31.402Z,152.11
2023-08-03T06:22:31.356Z,149.25
2023-08-03T06:23:31.430Z,151.29
2023-08-03T06:24:31.403Z,147.74
2023-08-03T06:25:31.406Z,144.07
2023-08-03T06:26:31.477Z,144.73
2023-08-03T06:27:31.459Z,145.34
2023-08-03T06:28:31.472Z,143.93
2023-08-03T06:29:31.450Z,137.81
2023-08-03T06:30:31.493Z,137.40
2023-08-03T06:31:31.563Z,136.03
2023-08-03T06:32:31.605Z,135.19
2023-08-03T06:33:31.502Z,131.90
2023-08-03T06:34:31.519Z,126.52
2023-08-03T06:35:31.543Z,125.62
2023-08-03T06:36:31.590Z,126.26
2023-08-03T06:37:31.594Z,120.82
2023-08-03T06:38:31.644Z,118.14
2023-08-03T06:39:31.630Z,118.68
2023-08-03T06:40:31.666Z,118.36
2023-08-03T06:41:31.647Z,115.39
2023-08-03T06:42:31.690Z,113.49
2023-08-03T06:43:31.650Z,116.17
2023-08-03T06:44:31.656Z,118.29
2023-08-03T06:45:31.672Z,118.28
2023-08-03T06:46:31.712Z,118.98
2023-08-03T06:47:31.686Z,117.08
2023-08-03T06:48:31.649Z,114.86
2023-08-03T06:49:31.640Z,113.72
2023-08-03T06:50:32.408Z,115.03
2023-08-03T06:51:31.653Z,113.86
2023-08-03T06:52:31.625Z,111.31
2023-08-03T06:53:31.610Z,115.32
2023-08-03T06:54:31.640Z,121.15
2023-08-03T06:55:31.639Z,124.17
2023-08-03T06:56:31.648Z,127.67
2023-08-03T06:57:31.647Z,124.28
2023-08-03T06:58:31.665Z,124.90
2023-08-03T06:59:31.707Z,123.47
2023-08-03T07:00:31.650Z,123.08
2023-08-03T07:01:31.820Z,120.15
2023-08-03T07:02:31.678Z,121.75
2023-08-03T07:03:31.826Z,122.81
2023-08-03T07:04:31.635Z,123.14
2023-08-03T07:05:31.644Z,119.99
2023-08-03T07:06:31.671Z,120.87
2023-08-03T07:07:31.639Z,118.78
2023-08-03T07:08:31.617Z,117.15
2023-08-03T07:09:31.615Z,119.74
2023-08-03T07:10:31.640Z,118.03
2023-08-03T07:11:31.624Z,118.42
2023-08-03T07:12:31.608Z,115.69
2023-08-03T07:13:31.620Z,116.07
2023-08-03T07:14:31.609Z,112.82
2023-08-03T07:15:31.598Z,116.81
2023-08-03T07:16:31.698Z,116.54
2023-08-03T07:17:31.713Z,114.56
2023-08-03T07:18:31.652Z,110.65
2023-08-03T07:19:31.666Z,106.21
2023-08-03T07:20:31.647Z,107.37
2023-08-03T07:21:31.787Z,103.29
2023-08-03T07:22:31.602Z,108.92
2023-08-03T07:23:31.640Z,112.78
2023-08-03T07:24:31.601Z,110.99
2023-08-03T07:25:31.612Z,109.95
2023-08-03T07:26:31.640Z,111.03
2023-08-03T07:27:31.595Z,110.87
2023-08-03T07:28:31.601Z,112.96
2023-08-03T07:29:31.591Z,113.66
2023-08-03T07:30:33.133Z,111.44
2023-08-03T07:31:31.727Z,112.21
2023-08-03T07:32:31.661Z,113.35
2023-08-03T07:33:31.610Z,112.08
2023-08-03T07:34:31.613Z,110.32
2023-08-03T07:35:31.591Z,112.57
2023-08-03T07:36:31.617Z,111.69
2023-08-03T07:37:31.581Z,116.87
2023-08-03T07:38:31.561Z,115.80
2023-08-03T07:39:31.558Z,113.90
2023-08-03T07:40:31.638Z,110.76
2023-08-03T07:41:31.593Z,112.86
2023-08-03T07:42:31.574Z,114.91
2023-08-03T07:43:31.573Z,111.67
2023-08-03T07:46:31.566Z,115.22
2023-08-03T07:47:31.586Z,113.85
2023-08-03T07:48:31.540Z,115.24
2023-08-03T07:49:31.534Z,110.55
2023-08-03T07:50:31.515Z,110.60
2023-08-03T07:51:31.540Z,107.36
2023-08-03T07:52:31.514Z,107.24
2023-08-03T07:53:31.522Z,109.10
2023-08-03T07:54:31.489Z,106.93
2023-08-03T07:55:31.542Z,105.49
2023-08-03T07:56:31.493Z,109.22
2023-08-03T07:57:31.494Z,109.29
2023-08-03T07:58:31.454Z,108.44
2023-08-03T07:59:31.456Z,109.91
2023-08-03T08:00:31.472Z,105.64
2023-08-03T08:01:31.599Z,101.71
2023-08-03T08:02:31.472Z,103.07
2023-08-03T08:03:31.489Z,105.15
2023-08-03T08:04:31.473Z,108.33
2023-08-03T08:05:31.418Z,108.34
2023-08-03T08:06:31.453Z,107.02
2023-08-03T08:07:31.422Z,105.76
2023-08-03T08:08:31.402Z,106.74
2023-08-03T08:09:31.444Z,104.79
2023-08-03T08:10:31.405Z,104.56
2023-08-03T08:11:31.483Z,103.81
2023-08-03T08:12:31.393Z,104.12
2023-08-03T08:13:31.403Z,103.16
2023-08-03T08:14:31.352Z,101.97
2023-08-03T08:15:31.449Z,103.04
2023-08-03T08:16:31.449Z,106.39
2023-08-03T08:17:31.366Z,109.13
2023-08-03T08:18:31.349Z,108.72
2023-08-03T08:19:31.347Z,103.86
2023-08-03T08:20:31.336Z,104.86
2023-08-03T08:21:31.357Z,101.41
2023-08-03T08:22:31.914Z,102.05
2023-08-03T08:23:31.317Z,99.82
2023-08-03T08:24:31.363Z,97.43
2023-08-03T08:25:31.400Z,94.27
2023-08-03T08:26:31.342Z,92.86
2023-08-03T08:27:31.489Z,91.23
2023-08-03T08:28:35.318Z,87.96
2023-08-03T08:29:32.261Z,88.09
2023-08-03T08:30:31.332Z,88.23
2023-08-03T08:32:31.349Z,86.09
2023-08-03T08:33:31.311Z,85.74
2023-08-03T08:34:32.556Z,87.28
2023-08-03T08:35:31.240Z,85.77
2023-08-03T08:36:31.281Z,86.67
2023-08-03T08:37:31.368Z,84.45
2023-08-03T08:38:31.203Z,85.22
2023-08-03T08:39:31.252Z,88.30
2023-08-03T08:40:31.217Z,89.49
2023-08-03T08:41:31.185Z,86.25
2023-08-03T08:42:31.203Z,86.31
2023-08-03T08:43:31.182Z,83.73
2023-08-03T08:44:31.164Z,86.24
2023-08-03T08:45:31.161Z,80.81
2023-08-03T08:46:31.236Z,76.70
2023-08-03T08:47:31.265Z,79.35
2023-08-03T08:50:32.416Z,78.74
2023-08-03T08:53:14.606Z,79.18
2023-08-03T08:55:17.577Z,78.87
2023-08-03T08:59:33.498Z,79.06
2023-08-03T09:00:31.298Z,80.77
2023-08-03T09:01:31.355Z,81.98
2023-08-03T09:02:31.444Z,83.38
2023-08-03T09:04:34.190Z,78.90
2023-08-03T09:06:31.487Z,79.00
2023-08-03T09:07:31.465Z,80.59
2023-08-03T09:08:31.445Z,82.61
2023-08-03T09:09:31.421Z,84.84
2023-08-03T09:10:31.406Z,87.30
2023-08-03T09:11:31.518Z,86.39
2023-08-03T09:12:31.472Z,80.61
2023-08-03T09:13:31.445Z,80.89
2023-08-03T09:14:31.437Z,84.29
2023-08-03T09:15:31.378Z,83.20
2023-08-03T09:16:31.462Z,89.09
2023-08-03T09:17:31.540Z,88.16
2023-08-03T09:18:31.429Z,86.90
2023-08-03T09:19:31.351Z,89.25
2023-08-03T09:25:40.772Z,87.96
2023-08-03T09:29:31.345Z,87.92
2023-08-03T09:31:31.341Z,87.99
2023-08-03T09:32:31.341Z,86.99
2023-08-03T09:36:32.626Z,88.03
2023-08-03T09:38:31.296Z,88.01
2023-08-03T09:39:31.743Z,83.74
2023-08-03T09:40:31.246Z,79.87
2023-08-03T09:44:31.235Z,81.48
2023-08-03T09:45:33.690Z,81.11
2023-08-03T09:46:31.364Z,81.42
2023-08-03T09:47:31.450Z,81.44
2023-08-03T09:48:31.469Z,77.41
2023-08-03T09:49:31.426Z,76.04
2023-08-03T09:50:31.583Z,79.11
2023-08-03T09:51:31.462Z,77.54
2023-08-03T09:53:31.558Z,80.90
2023-08-03T09:54:32.219Z,80.48
2023-08-03T09:55:31.507Z,81.49
2023-08-03T09:56:31.549Z,83.20
2023-08-03T09:57:31.494Z,83.09
2023-08-03T09:58:31.455Z,77.58
2023-08-03T09:59:31.507Z,77.02
2023-08-03T10:00:31.589Z,79.88
2023-08-03T10:01:31.462Z,80.10
2023-08-03T10:03:31.538Z,69.80
2023-08-03T10:04:31.436Z,69.11
2023-08-03T10:05:31.425Z,64.98
2023-08-03T10:06:31.462Z,68.60
2023-08-03T10:07:31.420Z,66.75
2023-08-03T10:08:31.445Z,65.05
2023-08-03T10:09:31.432Z,66.28
2023-08-03T10:10:31.406Z,65.61
2023-08-03T10:11:31.398Z,66.67
2023-08-03T10:12:31.413Z,65.19
2023-08-03T10:13:31.379Z,64.82
2023-08-03T10:14:31.372Z,65.32
2023-08-03T10:15:31.436Z,65.15
2023-08-03T10:16:31.366Z,61.05
2023-08-03T10:17:31.355Z,63.48
2023-08-03T10:19:31.395Z,59.50
2023-08-03T10:20:31.427Z,57.80
2023-08-03T10:21:31.425Z,57.32
2023-08-03T10:22:31.352Z,59.84
2023-08-03T10:23:31.347Z,58.97
2023-08-03T10:24:31.370Z,60.98
2023-08-03T10:25:31.334Z,61.84
2023-08-03T10:26:31.307Z,60.64
2023-08-03T10:27:31.343Z,58.92
2023-08-03T10:28:31.298Z,63.40
2023-08-03T10:29:31.315Z,65.07
2023-08-03T10:30:31.346Z,65.70
2023-08-03T10:31:31.313Z,62.08
2023-08-03T10:32:31.300Z,63.11
2023-08-03T10:33:31.300Z,64.00
2023-08-03T10:34:31.270Z,66.30
2023-08-03T10:35:31.272Z,59.38
2023-08-03T10:36:31.414Z,59.48
2023-08-03T10:37:31.261Z,60.97
2023-08-03T10:38:31.253Z,60.40
2023-08-03T10:39:31.292Z,61.27
2023-08-03T10:40:31.248Z,67.02
2023-08-03T10:41:31.277Z,65.63
2023-08-03T10:42:31.272Z,65.69
2023-08-03T10:43:31.203Z,65.64
2023-08-03T10:44:31.203Z,66.23
2023-08-03T10:45:31.215Z,66.91
2023-08-03T10:46:31.397Z,66.09
2023-08-03T10:47:31.370Z,66.75
2023-08-03T10:48:31.287Z,65.33
2023-08-03T10:49:31.232Z,66.05
2023-08-03T10:50:31.167Z,69.11
2023-08-03T10:51:31.154Z,66.37
2023-08-03T10:52:31.205Z,65.86
2023-08-03T10:53:31.155Z,65.77
2023-08-03T10:54:31.232Z,62.50
2023-08-03T10:55:31.198Z,63.53
2023-08-03T10:56:31.233Z,69.22
2023-08-03T10:57:31.266Z,68.56
2023-08-03T10:58:31.363Z,68.73
2023-08-03T10:59:31.377Z,68.16
2023-08-03T11:00:31.459Z,68.33
2023-08-03T11:01:31.601Z,68.96
2023-08-03T11:02:31.771Z,65.45
2023-08-03T11:03:31.720Z,68.48
2023-08-03T11:04:31.808Z,68.09
2023-08-03T11:05:31.750Z,68.36
2023-08-03T11:06:31.818Z,68.61
2023-08-03T11:07:31.932Z,70.42
2023-08-03T11:08:31.948Z,73.63
2023-08-03T11:09:32.035Z,72.51
2023-08-03T11:10:32.118Z,72.01
2023-08-03T11:11:32.124Z,70.17
2023-08-03T11:12:32.188Z,69.06
2023-08-03T11:13:32.270Z,70.73
2023-08-03T11:14:32.293Z,73.77
2023-08-03T11:15:32.362Z,71.30
2023-08-03T11:16:33.924Z,70.92
2023-08-03T11:17:32.613Z,73.53
2023-08-03T11:18:32.526Z,70.73
2023-08-03T11:19:32.665Z,72.36
2023-08-03T11:20:32.654Z,66.44
2023-08-03T11:21:32.700Z,68.68
2023-08-03T11:22:33.764Z,61.76
2023-08-03T11:23:32.843Z,65.66
2023-08-03T11:24:32.922Z,69.74
2023-08-03T11:25:32.989Z,66.41
2023-08-03T11:26:33.018Z,65.94
2023-08-03T11:27:33.138Z,65.99
2023-08-03T11:28:33.143Z,62.77
2023-08-03T11:29:33.174Z,62.57
2023-08-03T11:30:33.233Z,65.06
2023-08-03T11:31:33.336Z,64.18
2023-08-03T11:32:33.411Z,59.47
2023-08-03T11:33:33.444Z,61.14
2023-08-03T11:34:33.595Z,65.55
2023-08-03T11:35:33.553Z,66.77
2023-08-03T11:36:33.810Z,64.80
2023-08-03T11:37:33.737Z,64.75
2023-08-03T11:38:33.725Z,68.55
2023-08-03T11:39:33.812Z,70.12
2023-08-03T11:40:33.844Z,69.31
2023-08-03T11:41:34.050Z,67.75
2023-08-03T11:42:33.966Z,68.73
2023-08-03T11:43:34.085Z,68.55
2023-08-03T11:44:36.571Z,70.05
2023-08-03T11:45:34.381Z,74.22
2023-08-03T11:46:34.411Z,69.25
2023-08-03T11:47:34.445Z,68.86
2023-08-03T11:48:34.509Z,68.70
2023-08-03T11:49:34.622Z,72.06
2023-08-03T11:50:34.628Z,68.67
2023-08-03T11:51:34.703Z,72.55
2023-08-03T11:52:34.742Z,72.57
2023-08-03T11:53:34.840Z,72.24
2023-08-03T11:54:34.875Z,71.69
2023-08-03T11:55:34.947Z,71.30
2023-08-03T11:56:43.700Z,72.66
2023-08-03T11:57:35.984Z,72.77
2023-08-03T11:58:35.004Z,70.70
2023-08-03T11:59:34.955Z,72.45
2023-08-03T12:00:34.945Z,69.57
2023-08-03T12:01:35.008Z,72.59
2023-08-03T12:02:35.058Z,69.62
2023-08-03T12:03:35.059Z,66.38
2023-08-03T12:04:34.969Z,64.70
2023-08-03T12:07:35.118Z,68.69
2023-08-03T12:08:34.976Z,68.73
2023-08-03T12:09:34.909Z,69.16
2023-08-03T12:10:40.016Z,69.60
2023-08-03T12:12:36.315Z,68.65
2023-08-03T12:14:34.960Z,69.78
2023-08-03T12:15:34.927Z,70.82
2023-08-03T12:16:34.902Z,70.63
2023-08-03T12:17:34.886Z,71.74
2023-08-03T12:18:34.859Z,75.82
2023-08-03T12:19:34.841Z,73.24
2023-08-03T12:21:34.823Z,68.80
2023-08-03T12:22:34.813Z,68.41
2023-08-03T12:23:34.825Z,68.87
2023-08-03T12:24:34.850Z,69.51
2023-08-03T12:25:36.870Z,73.62
2023-08-03T12:26:35.382Z,76.26
2023-08-03T12:28:34.999Z,74.64
2023-08-03T12:30:36.059Z,74.39
2023-08-03T12:31:35.117Z,74.51
2023-08-03T12:32:35.079Z,71.01
2023-08-03T12:33:35.101Z,68.00
2023-08-03T12:34:34.987Z,71.42
2023-08-03T12:35:34.977Z,69.88
2023-08-03T12:36:35.026Z,69.10
2023-08-03T12:37:34.946Z,72.00
2023-08-03T12:38:34.949Z,70.51
2023-08-03T12:39:34.992Z,69.19
2023-08-03T12:40:35.069Z,67.01
2023-08-03T12:41:35.144Z,65.22
2023-08-03T12:42:35.197Z,66.33
2023-08-03T12:43:35.312Z,64.54
2023-08-03T12:44:35.294Z,64.53
2023-08-03T12:45:35.416Z,61.82
2023-08-03T12:46:35.423Z,64.20
2023-08-03T12:47:37.296Z,63.07
2023-08-03T12:48:35.698Z,62.39
2023-08-03T12:49:35.614Z,65.27
2023-08-03T12:50:35.661Z,68.25
2023-08-03T12:51:35.737Z,64.68
2023-08-03T12:52:35.790Z,63.37
2023-08-03T12:53:35.840Z,67.83
2023-08-03T12:54:35.913Z,63.82
2023-08-03T12:55:35.965Z,62.44
2023-08-03T12:56:36.017Z,62.20
2023-08-03T12:57:36.088Z,63.15
2023-08-03T12:58:36.142Z,61.03
2023-08-03T12:59:36.215Z,59.44
2023-08-03T13:00:36.271Z,60.92
2023-08-03T13:01:36.490Z,57.61
2023-08-03T13:03:36.485Z,55.97
2023-08-03T13:04:36.603Z,53.25
2023-08-03T13:05:38.696Z,54.07
2023-08-03T13:06:36.788Z,51.04
2023-08-03T13:07:36.880Z,46.92
2023-08-03T13:08:36.911Z,49.37
2023-08-03T13:09:36.962Z,50.54
2023-08-03T13:10:37.007Z,51.40
2023-08-03T13:11:37.110Z,54.51
2023-08-03T13:12:37.170Z,52.24
2023-08-03T13:13:37.224Z,53.15
2023-08-03T13:14:37.317Z,56.05
2023-08-03T13:15:37.392Z,53.19
2023-08-03T13:16:37.450Z,57.95